createdAt,value
2022-09-06T04:09:39.314Z,6.75
2022-09-06T04:12:05.965Z,5.97
2022-09-06T04:14:32.584Z,6.30
2022-09-06T04:16:59.119Z,5.82
2022-09-06T04:19:25.701Z,5.45
2022-09-06T04:21:52.166Z,5.53
2022-09-06T04:24:18.662Z,5.83
2022-09-06T04:26:45.178Z,5.55
2022-09-06T04:29:11.748Z,6.15
2022-09-06T04:31:38.374Z,6.00
2022-09-06T04:34:04.961Z,6.03
2022-09-06T04:36:31.464Z,5.90
2022-09-06T04:38:57.977Z,5.70
2022-09-06T04:41:24.452Z,5.60
2022-09-06T04:43:51.009Z,5.85
2022-09-06T04:46:25.099Z,5.78
2022-09-06T04:48:52.825Z,5.73
2022-09-06T04:51:19.680Z,5.50
2022-09-06T04:53:46.674Z,5.68
2022-09-06T04:56:16.033Z,5.45
2022-09-06T04:58:44.019Z,5.63
2022-09-06T05:01:10.717Z,5.67
2022-09-06T05:03:38.338Z,5.90
2022-09-06T05:06:09.835Z,5.55
2022-09-06T05:08:40.484Z,6.05
2022-09-06T05:11:08.104Z,5.45
2022-09-06T05:13:35.514Z,6.07
2022-09-06T05:16:03.079Z,5.25
2022-09-06T05:18:29.907Z,5.50
2022-09-06T05:20:56.709Z,6.05
2022-09-06T05:23:23.714Z,5.75
2022-09-06T05:25:50.253Z,5.67
2022-09-06T05:28:17.119Z,5.65
2022-09-06T05:30:43.734Z,5.80
2022-09-06T05:33:11.258Z,5.82
2022-09-06T05:35:38.013Z,5.80
2022-09-06T05:38:04.509Z,5.90
2022-09-06T05:40:31.205Z,5.75
2022-09-06T05:42:57.717Z,5.55
2022-09-06T05:45:24.272Z,7.00
2022-09-06T05:47:52.760Z,9.65
2022-09-06T05:50:19.308Z,7.00
2022-09-06T05:52:48.581Z,5.88
2022-09-06T05:55:15.211Z,6.10
2022-09-06T05:57:42.966Z,5.68
2022-09-06T06:00:14.153Z,6.20
2022-09-06T06:02:40.898Z,6.13
2022-09-06T06:05:10.631Z,6.90
2022-09-06T06:07:37.118Z,5.65
2022-09-06T06:10:04.398Z,5.75
2022-09-06T06:12:30.900Z,7.00
2022-09-06T06:14:57.387Z,7.63
2022-09-06T06:17:23.984Z,5.82
2022-09-06T06:19:50.677Z,5.72
2022-09-06T06:22:17.451Z,6.47
2022-09-06T06:24:44.057Z,6.38
2022-09-06T06:27:15.769Z,5.40
2022-09-06T06:29:43.500Z,5.32
2022-09-06T06:32:10.130Z,5.55
2022-09-06T06:34:36.738Z,5.05
2022-09-06T06:37:03.398Z,5.03
2022-09-06T06:39:29.991Z,6.23
2022-09-06T06:41:56.628Z,6.53
2022-09-06T06:44:23.295Z,5.70
2022-09-06T06:46:49.956Z,5.75
2022-09-06T06:49:16.558Z,5.10
2022-09-06T06:51:43.182Z,6.20
2022-09-06T06:54:09.737Z,5.15
2022-09-06T06:56:38.174Z,5.65
2022-09-06T06:59:06.869Z,5.43
2022-09-06T07:01:35.079Z,5.80
2022-09-06T07:04:01.736Z,4.80
2022-09-06T07:09:16.470Z,5.50
2022-09-06T07:11:42.932Z,5.18
2022-09-06T07:14:09.485Z,5.50
2022-09-06T07:16:35.977Z,5.13
2022-09-06T07:19:03.104Z,5.63
2022-09-06T07:24:06.127Z,5.50
2022-09-06T07:26:34.259Z,5.18
2022-09-06T07:29:02.614Z,5.27
2022-09-06T07:34:17.891Z,5.45
2022-09-06T07:36:44.391Z,5.38
2022-09-06T07:39:10.880Z,5.60
2022-09-06T07:41:37.337Z,5.33
2022-09-06T07:44:03.857Z,5.65
2022-09-06T07:46:30.421Z,6.35
2022-09-06T07:48:56.985Z,5.22
2022-09-06T07:51:24.829Z,5.22
2022-09-06T07:54:06.926Z,5.37
2022-09-06T07:56:39.909Z,6.20
2022-09-06T07:59:06.594Z,5.25
2022-09-06T08:01:37.689Z,5.05
2022-09-06T08:04:06.444Z,5.57
2022-09-06T08:09:22.340Z,5.15
2022-09-06T08:11:50.998Z,4.78
2022-09-06T08:14:17.495Z,5.18
2022-09-06T08:16:44.999Z,5.22
2022-09-06T08:19:12.445Z,5.53
2022-09-06T08:21:39.147Z,4.80
2022-09-06T08:24:07.482Z,5.40
2022-09-06T08:26:35.568Z,4.72
2022-09-06T08:29:05.853Z,5.57
2022-09-06T08:31:33.201Z,6.83
2022-09-06T08:34:00.527Z,5.20
2022-09-06T08:36:29.636Z,5.18
2022-09-06T08:39:00.622Z,5.00
2022-09-06T08:41:31.713Z,4.90
2022-09-06T08:46:55.370Z,5.03
2022-09-06T08:49:21.990Z,4.68
2022-09-06T08:52:06.263Z,5.03
2022-09-06T08:54:53.862Z,4.80
2022-09-06T08:57:48.205Z,5.13
2022-09-06T09:00:15.121Z,5.60
2022-09-06T09:02:51.777Z,5.20
2022-09-06T09:05:26.034Z,5.10
2022-09-06T09:08:04.412Z,5.25
2022-09-06T09:10:56.652Z,5.07
2022-09-06T09:13:52.221Z,4.90
2022-09-06T09:16:21.225Z,5.00
2022-09-06T09:18:56.368Z,5.20
2022-09-06T09:21:30.491Z,5.18
2022-09-06T09:23:59.074Z,4.80
2022-09-06T09:26:27.029Z,5.00
2022-09-06T09:29:08.605Z,5.05
2022-09-06T09:31:56.696Z,4.55
2022-09-06T09:34:35.986Z,4.97
2022-09-06T09:40:05.409Z,5.38
2022-09-06T09:42:35.174Z,5.28
2022-09-06T09:45:02.640Z,5.40
2022-09-06T09:47:32.573Z,5.82
2022-09-06T09:49:59.580Z,5.03
2022-09-06T09:52:29.215Z,5.07
2022-09-06T09:55:05.051Z,5.93
2022-09-06T09:57:42.478Z,5.15
2022-09-06T10:00:13.278Z,4.80
2022-09-06T10:02:41.432Z,5.40
2022-09-06T10:05:13.727Z,4.90
2022-09-06T10:07:47.546Z,4.60
2022-09-06T10:10:15.801Z,5.50
2022-09-06T10:12:42.836Z,5.00
2022-09-06T10:15:11.867Z,5.47
2022-09-06T10:17:44.292Z,4.90
2022-09-06T10:20:12.557Z,5.43
2022-09-06T10:22:48.767Z,5.00
2022-09-06T10:25:26.423Z,5.22
2022-09-06T10:28:28.135Z,5.23
2022-09-06T10:31:13.439Z,5.35
2022-09-06T10:34:04.117Z,4.65
2022-09-06T10:36:56.759Z,4.72
2022-09-06T10:39:39.759Z,4.80
2022-09-06T10:42:21.962Z,5.00
2022-09-06T10:44:51.402Z,4.68
2022-09-06T10:47:18.302Z,4.65
2022-09-06T10:49:48.727Z,5.00
2022-09-06T10:52:20.542Z,4.60
2022-09-06T10:54:47.380Z,4.50
2022-09-06T11:00:14.709Z,4.57
2022-09-06T11:05:52.612Z,4.70
2022-09-06T11:08:46.990Z,4.23
2022-09-06T11:11:20.044Z,4.90
2022-09-06T11:13:47.323Z,5.00
2022-09-06T11:16:39.171Z,4.30
2022-09-06T11:19:12.086Z,4.78
2022-09-06T11:22:06.077Z,4.63
2022-09-06T11:25:00.567Z,4.13
2022-09-06T11:27:29.989Z,4.28
2022-09-06T11:29:56.735Z,4.10
2022-09-06T11:32:37.247Z,4.75
2022-09-06T11:35:07.376Z,4.60
2022-09-06T11:37:39.353Z,4.40
2022-09-06T11:40:27.025Z,4.43
2022-09-06T11:42:54.665Z,4.60
2022-09-06T11:45:48.082Z,4.40
2022-09-06T11:48:23.654Z,4.40
2022-09-06T11:50:59.199Z,4.57
2022-09-06T11:53:27.607Z,4.38
2022-09-06T11:56:00.164Z,4.65
2022-09-06T11:58:41.806Z,4.40
2022-09-06T12:01:16.440Z,3.70
2022-09-06T12:06:32.777Z,4.00
2022-09-06T12:08:59.396Z,4.35
2022-09-06T12:11:41.649Z,3.83
2022-09-06T12:14:27.951Z,4.07
2022-09-06T12:16:57.428Z,4.03
2022-09-06T12:19:50.173Z,3.67
2022-09-06T12:22:40.174Z,3.97
2022-09-06T12:25:18.476Z,3.92
2022-09-06T12:27:59.105Z,3.60
2022-09-06T12:30:42.250Z,3.80
2022-09-06T12:33:31.196Z,3.85
2022-09-06T12:36:20.120Z,3.70
2022-09-06T12:39:13.001Z,3.20
2022-09-06T12:41:43.629Z,3.70
2022-09-06T12:44:11.694Z,3.78
2022-09-06T12:46:39.945Z,3.85
2022-09-06T12:49:09.387Z,3.17
2022-09-06T12:51:37.612Z,3.42
2022-09-06T12:54:24.534Z,2.80
2022-09-06T12:56:51.779Z,3.53
2022-09-06T12:59:19.838Z,3.00
2022-09-06T13:02:07.866Z,3.13
2022-09-06T13:04:39.894Z,2.80
2022-09-06T13:07:27.083Z,3.37
2022-09-06T13:09:54.741Z,3.00
2022-09-06T13:12:27.256Z,3.33
2022-09-06T13:14:55.220Z,2.85
2022-09-06T13:17:29.629Z,3.38
2022-09-06T13:19:58.123Z,3.17
2022-09-06T13:22:46.272Z,2.80
2022-09-06T13:25:17.613Z,2.80
2022-09-06T13:27:51.734Z,2.67
2022-09-06T13:30:49.958Z,3.00
2022-09-06T13:33:25.413Z,2.87
2022-09-06T13:36:12.106Z,3.38
2022-09-06T13:38:41.028Z,2.78
2022-09-06T13:41:25.651Z,3.20
2022-09-06T13:44:17.546Z,3.17
2022-09-06T13:46:44.382Z,3.07
2022-09-06T13:49:10.927Z,3.08
2022-09-06T13:51:38.304Z,3.40
2022-09-06T13:54:11.569Z,3.10
2022-09-06T13:56:39.278Z,3.17
2022-09-06T13:59:06.383Z,3.00
2022-09-06T14:01:33.733Z,3.50
2022-09-06T14:04:00.419Z,3.40
2022-09-06T14:06:27.161Z,3.40
2022-09-06T14:09:06.966Z,3.10
2022-09-06T14:11:35.261Z,3.13
2022-09-06T14:14:01.850Z,3.17
2022-09-06T14:16:28.598Z,4.07
2022-09-06T14:18:55.522Z,2.97
2022-09-06T14:21:22.124Z,4.03
2022-09-06T14:23:50.986Z,3.13
2022-09-06T14:26:18.886Z,3.40
2022-09-06T14:28:45.477Z,3.35
2022-09-06T14:31:14.323Z,3.42
2022-09-06T14:33:40.967Z,3.13
2022-09-06T14:36:08.910Z,3.60
2022-09-06T14:38:40.144Z,3.20
2022-09-06T14:41:07.780Z,3.47
2022-09-06T14:43:34.926Z,3.60
2022-09-06T14:46:09.222Z,3.60
2022-09-06T14:48:40.247Z,3.53
2022-09-06T14:51:21.851Z,3.55
2022-09-06T14:53:50.974Z,3.70
2022-09-06T14:56:18.041Z,3.55
2022-09-06T14:58:44.653Z,3.65
2022-09-06T15:01:13.695Z,3.60
2022-09-06T15:03:46.379Z,3.63
2022-09-06T15:06:12.915Z,3.35
2022-09-06T15:08:39.404Z,3.50
2022-09-06T15:11:08.316Z,3.78
2022-09-06T15:13:40.305Z,4.40
2022-09-06T15:16:08.661Z,3.63
2022-09-06T15:18:35.702Z,3.67
2022-09-06T15:21:12.650Z,3.90
2022-09-06T15:23:39.855Z,4.07
2022-09-06T15:26:08.369Z,3.87
2022-09-06T15:28:39.088Z,4.28
2022-09-06T15:31:06.682Z,4.72
2022-09-06T15:33:34.553Z,3.95
2022-09-06T15:36:06.035Z,3.95
2022-09-06T15:38:38.052Z,5.10
2022-09-06T15:41:08.805Z,4.00
2022-09-06T15:43:36.237Z,4.05
2022-09-06T15:46:02.817Z,4.18
2022-09-06T15:48:29.816Z,3.90
2022-09-06T15:50:56.309Z,3.80
2022-09-06T15:53:22.844Z,3.95
2022-09-06T15:55:58.541Z,4.32
2022-09-06T15:58:26.637Z,3.70
2022-09-06T16:01:20.274Z,4.00
2022-09-06T16:03:53.669Z,3.80
2022-09-06T16:06:26.245Z,4.03
2022-09-06T16:09:05.267Z,4.03
2022-09-06T16:11:36.588Z,3.95
2022-09-06T16:14:05.328Z,3.60
2022-09-06T16:16:32.642Z,4.87
2022-09-06T16:19:00.177Z,4.50
2022-09-06T16:21:30.337Z,4.45
2022-09-06T16:23:58.933Z,4.18
2022-09-06T16:26:28.317Z,4.70
2022-09-06T16:28:54.953Z,4.10
2022-09-06T16:31:22.245Z,4.90
2022-09-06T16:33:49.217Z,4.50
2022-09-06T16:36:16.438Z,5.13
2022-09-06T16:38:43.600Z,4.82
2022-09-06T16:41:14.558Z,4.60
2022-09-06T16:43:41.495Z,5.07
2022-09-06T16:46:08.204Z,4.68
2022-09-06T16:48:35.127Z,4.57
2022-09-06T16:51:09.867Z,4.90
2022-09-06T16:53:36.534Z,4.37
2022-09-06T16:56:03.646Z,5.05
2022-09-06T16:58:30.230Z,5.68
2022-09-06T17:00:57.042Z,5.10
2022-09-06T17:03:23.731Z,4.88
2022-09-06T17:05:51.376Z,5.50
2022-09-06T17:08:17.926Z,5.10
2022-09-06T17:10:44.617Z,5.22
2022-09-06T17:13:11.629Z,5.50
2022-09-06T17:15:56.885Z,5.15
2022-09-06T17:18:25.145Z,5.03
2022-09-06T17:21:04.663Z,5.80
2022-09-06T17:23:32.108Z,5.00
2022-09-06T17:25:58.740Z,5.30
2022-09-06T17:28:25.983Z,5.40
2022-09-06T17:30:53.103Z,4.83
2022-09-06T17:33:20.991Z,5.78
2022-09-06T17:35:48.934Z,5.55
2022-09-06T17:38:16.298Z,5.57
2022-09-06T17:40:43.433Z,5.20
2022-09-06T17:43:09.934Z,5.43
2022-09-06T17:45:42.457Z,5.38
2022-09-06T17:48:09.075Z,5.55
2022-09-06T17:50:35.662Z,5.50
2022-09-06T17:53:02.677Z,5.53
2022-09-06T17:55:29.947Z,5.20
2022-09-06T17:57:56.622Z,5.07
2022-09-06T18:00:24.755Z,5.07
2022-09-06T18:02:51.302Z,5.18
2022-09-06T18:05:18.173Z,5.78
2022-09-06T18:07:45.538Z,5.60
2022-09-06T18:10:14.487Z,5.55
2022-09-06T18:12:44.176Z,5.65
2022-09-06T18:15:10.846Z,5.93
2022-09-06T18:17:37.388Z,6.28
2022-09-06T18:20:04.706Z,6.83
2022-09-06T18:22:31.671Z,5.90
2022-09-06T18:24:58.587Z,5.22
2022-09-06T18:27:25.721Z,5.65
2022-09-06T18:29:52.230Z,6.43
2022-09-06T18:32:18.716Z,5.60
2022-09-06T18:34:45.235Z,5.78
2022-09-06T18:37:12.129Z,6.22
2022-09-06T18:39:39.550Z,6.18
2022-09-06T18:42:11.064Z,6.47
2022-09-06T18:44:38.360Z,6.10
2022-09-06T18:47:07.478Z,5.72
2022-09-06T18:49:34.738Z,5.43
2022-09-06T18:52:03.149Z,6.38
2022-09-06T18:54:29.741Z,5.68
2022-09-06T18:56:56.441Z,5.87
2022-09-06T18:59:23.121Z,5.60
2022-09-06T19:01:49.730Z,5.82
2022-09-06T19:04:16.690Z,6.07
2022-09-06T19:06:44.052Z,5.93
2022-09-06T19:09:14.243Z,6.00
2022-09-06T19:11:45.554Z,6.65
2022-09-06T19:14:12.477Z,5.75
2022-09-06T19:16:39.130Z,5.97
2022-09-06T19:19:08.351Z,5.20
2022-09-06T19:21:40.801Z,6.27
2022-09-06T19:24:10.172Z,5.80
2022-09-06T19:26:39.328Z,5.65
2022-09-06T19:29:10.925Z,6.63
2022-09-06T19:31:38.384Z,6.60
2022-09-06T19:34:05.518Z,6.20
2022-09-06T19:36:32.547Z,6.30
2022-09-06T19:39:04.373Z,6.07
2022-09-06T19:41:38.860Z,7.43
2022-09-06T19:44:05.799Z,6.28
2022-09-06T19:46:32.607Z,6.50
2022-09-06T19:49:00.406Z,6.75
2022-09-06T19:51:26.885Z,6.93
2022-09-06T19:53:57.355Z,6.90
2022-09-06T19:56:26.462Z,6.90
